Dar Mlodziezy — SQLZ — position and weather

sailwx.info

Track history (hours):
 
Tides and Currents Weather Stations Pressure Air Temp Water Temp Dewpoint Dewpoint Depression Visibility Wind Speed Wind Dir Waves Ship Positions

Dar Mlodziezy

Training ship for Gdynia Maritime University, Poland.

Ship's website: http://www.am.gdynia.pl/armator/darmlodziezy.php

Last reported at 2018-Apr-26 19:00 UTC. Time now 2018-Apr-26 19:13 UTC.
Position N 54°47' E 018°51'.

Length 95 m; beam 14 m.

Type: Sailing vessel. MMSI: 261148000.

Date/timePositionNaut miles runAvg speedWind from/ knotsBaromVisibWave heightAir tempDewpointWater temp
2018-Apr-26 19:00N 54°47' E 018°51'0 0.5
2018-Apr-26 18:30N 54°47' E 018°51'0 0.5
2018-Apr-26 17:59N 54°47' E 018°50'0 0.6
2018-Apr-26 17:30N 54°47' E 018°50'0 0.6
2018-Apr-26 17:00N 54°47' E 018°50'0 0.7
2018-Apr-26 16:30N 54°47' E 018°49'0 0.7
2018-Apr-26 16:00N 54°47' E 018°48'0 0.8
2018-Apr-26 15:30N 54°47' E 018°48'0 0.8
2018-Apr-26 15:00N 54°47' E 018°47'0 0.8
2018-Apr-26 14:30N 54°47' E 018°47'0 0.9
2018-Apr-26 14:00N 54°47' E 018°46'1 1.0
2018-Apr-26 13:30N 54°48' E 018°45'1 1.1
2018-Apr-26 13:00N 54°48' E 018°44'1 1.2
2018-Apr-26 12:30N 54°48' E 018°43'1 1.2
2018-Apr-26 12:00N 54°49' E 018°42'1 1.2
2018-Apr-26 11:30N 54°49' E 018°42'1 1.4
2018-Apr-26 11:00N 54°49' E 018°41'1 1.3
2018-Apr-26 10:30N 54°49' E 018°39'2 3.8
2018-Apr-26 10:00N 54°51' E 018°37'2 4.5
2018-Apr-26 09:30N 54°52' E 018°34'2 4.8
2018-Apr-26 09:00N 54°53' E 018°30'3 6.5
2018-Apr-26 08:30N 54°54' E 018°25'3 5.8
2018-Apr-26 08:00N 54°55' E 018°19'4 7.1
2018-Apr-26 07:30N 54°55' E 018°13'4 7.8
2018-Apr-26 07:00N 54°56' E 018°07'4 7.9
2018-Apr-26 06:30N 54°56' E 017°60'98 7.4
2018-Apr-25 17:17N 54°53' E 015°09'2 7.6
2018-Apr-25 17:00N 54°54' E 015°06'3 6.8
2018-Apr-25 16:30N 54°55' E 015°00'3 5.6
2018-Apr-25 16:00N 54°56' E 014°56'2 3.6
2018-Apr-25 15:30N 54°56' E 014°53'3 5.6
2018-Apr-25 15:00N 54°55' E 014°48'4 7.2
2018-Apr-25 14:30N 54°55' E 014°41'4 8.4
2018-Apr-25 14:00N 54°56' E 014°34'5 9.3
2018-Apr-25 13:30N 54°56' E 014°26'5 9.2
2018-Apr-25 13:00N 54°56' E 014°18'5 7.3
2018-Apr-25 12:20N 54°56' E 014°10'8 5.0
2018-Apr-25 10:50N 54°59' E 013°58'47 7.6
2018-Apr-25 04:36N 55°17' E 012°41'2 8.3
2018-Apr-25 04:21N 55°18' E 012°38'3 7.8
2018-Apr-25 03:55N 55°21' E 012°38'5 7.5
2018-Apr-25 03:12N 55°26' E 012°40'2 7.7
2018-Apr-25 03:00N 55°28' E 012°41'5 8.2
2018-Apr-25 02:24N 55°33' E 012°42'4 9.1
2018-Apr-25 02:00N 55°36' E 012°42'5 9.4
2018-Apr-25 01:27N 55°42' E 012°41'4 8.3
2018-Apr-25 01:00N 55°45' E 012°41'4 8.0
2018-Apr-25 00:27N 55°50' E 012°42'4 8.7
2018-Apr-25 00:00N 55°53' E 012°39'4 8.1
2018-Apr-24 23:30N 55°57' E 012°40'5 9.1
2018-Apr-24 23:00N 56°02' E 012°39'510.0
2018-Apr-24 22:30N 56°06' E 012°34'75 8.3
2018-Apr-24 13:28N 57°13' E 011°34'4 8.0
2018-Apr-24 13:00N 57°17' E 011°31'4 8.0
2018-Apr-24 12:30N 57°21' E 011°29'4 7.8
2018-Apr-24 12:00N 57°24' E 011°26'4 7.9
2018-Apr-24 11:30N 57°28' E 011°23'4 8.6
2018-Apr-24 11:00N 57°31' E 011°18'4 8.7
2018-Apr-24 10:30N 57°34' E 011°12'4 8.5
2018-Apr-24 10:00N 57°37' E 011°06'4 7.6
2018-Apr-24 09:30N 57°39' E 011°01'3 6.8
2018-Apr-24 09:00N 57°42' E 010°56'3 6.7
2018-Apr-24 08:30N 57°44' E 010°51'4 7.5
2018-Apr-24 08:00N 57°46' E 010°46'9 7.7
2018-Apr-24 06:50N 57°49' E 010°30'1 3.2
2018-Apr-24 06:30N 57°48' E 010°28'2 3.6
2018-Apr-24 06:00N 57°48' E 010°25'7 6.0
2018-Apr-24 04:45N 57°45' E 010°12'2 7.3
2018-Apr-24 04:29N 57°45' E 010°08'4 7.2
2018-Apr-24 04:00N 57°44' E 010°02'3 6.4
2018-Apr-24 03:30N 57°42' E 009°57'3 6.9
2018-Apr-24 02:59N 57°40' E 009°51'144 6.9
2018-Apr-23 06:13N 55°60' E 006°43'1 6.4
2018-Apr-23 05:59N 55°58' E 006°42'3 6.6
2018-Apr-23 05:29N 55°56' E 006°39'3 6.6
2018-Apr-23 05:00N 55°53' E 006°35'3 6.3
2018-Apr-23 04:30N 55°50' E 006°32'3 6.3
2018-Apr-23 04:00N 55°48' E 006°29'4 7.4
2018-Apr-23 03:29N 55°45' E 006°26'3 6.7
2018-Apr-23 02:59N 55°42' E 006°23'3 5.9
2018-Apr-23 02:26N 55°39' E 006°20'2 4.3
2018-Apr-23 02:00N 55°37' E 006°18'182 6.7
2018-Apr-21 22:46N 53°05' E 003°28'3 7.7
2018-Apr-21 22:24N 53°03' E 003°26'9 8.1
2018-Apr-21 21:16N 52°54' E 003°21'2 8.7
2018-Apr-21 21:00N 52°52' E 003°21'5 9.0
2018-Apr-21 20:29N 52°47' E 003°22'5 9.2
2018-Apr-21 20:00N 52°42' E 003°22'5 9.1
2018-Apr-21 19:30N 52°38' E 003°23'5 9.1
2018-Apr-21 18:57N 52°33' E 003°24'4 9.2
2018-Apr-21 18:29N 52°29' E 003°24'13 9.7
2018-Apr-21 17:11N 52°16' E 003°27'5 9.5
2018-Apr-21 16:41N 52°11' E 003°25'2 9.3
2018-Apr-21 16:30N 52°10' E 003°25'8 8.9
2018-Apr-21 15:38N 52°02' E 003°23'1 9.1
2018-Apr-21 15:30N 52°01' E 003°23'5 8.1
2018-Apr-21 14:55N 51°56' E 003°22'3 7.7
2018-Apr-21 14:30N 51°53' E 003°21'4 7.4
2018-Apr-21 14:00N 51°50' E 003°19'4 7.1
2018-Apr-21 13:29N 51°46' E 003°17'3 6.6
2018-Apr-21 12:58N 51°43' E 003°17'4 8.0
2018-Apr-21 12:30N 51°39' E 003°20'6 8.4
2018-Apr-21 11:47N 51°34' E 003°25'3 7.7
2018-Apr-21 11:27N 51°32' E 003°26'4 8.4
2018-Apr-21 11:00N 51°29' E 003°30'5 9.1
2018-Apr-21 10:30N 51°26' E 003°35'5 9.4
2018-Apr-21 10:00N 51°25' E 003°43'611.3
2018-Apr-21 09:30N 51°21' E 003°49'611.7
2018-Apr-21 09:00N 51°24' E 003°57'3 6.3
2018-Apr-21 08:30N 51°24' E 004°02'5 9.1
2018-Apr-21 07:58N 51°23' E 004°10'4 7.9
2018-Apr-21 07:29N 51°21' E 004°15'4 9.0
2018-Apr-21 07:00N 51°18' E 004°19'3 6.3
2018-Apr-21 06:30N 51°15' E 004°20'2 4.4
2018-Apr-21 05:56N 51°13' E 004°24'0 0.0
2018-Apr-21 05:29N 51°13' E 004°24'0 0.0
2018-Apr-21 04:56N 51°13' E 004°24'0 0.0
2018-Apr-21 04:29N 51°13' E 004°24'0 0.0
2018-Apr-21 03:59N 51°13' E 004°24'0 0.0
2018-Apr-21 03:29N 51°13' E 004°24'0 0.0
2018-Apr-21 02:59N 51°13' E 004°24'0 0.0
2018-Apr-21 02:29N 51°13' E 004°24'0 0.0
2018-Apr-21 01:59N 51°13' E 004°24'0 0.0
2018-Apr-21 01:29N 51°13' E 004°24'0 0.0
2018-Apr-21 00:59N 51°13' E 004°24'0 0.0
2018-Apr-21 00:29N 51°13' E 004°24'0 0.0
2018-Apr-21 00:00N 51°13' E 004°24'0 0.0
2018-Apr-20 23:29N 51°13' E 004°24'0 0.0
2018-Apr-20 22:59N 51°13' E 004°24'0 0.0
2018-Apr-20 22:29N 51°13' E 004°24'0 0.0
2018-Apr-20 21:56N 51°13' E 004°24'0 0.0
2018-Apr-20 21:29N 51°13' E 004°24'0 0.0
2018-Apr-20 20:59N 51°13' E 004°24'0 0.0
2018-Apr-20 20:26N 51°13' E 004°24'0 0.0
2018-Apr-20 19:56N 51°13' E 004°24'0 0.0
2018-Apr-20 19:29N 51°13' E 004°24'0 0.0
2018-Apr-20 18:59N 51°13' E 004°24'0 0.0
2018-Apr-20 18:29N 51°13' E 004°24'0 0.0
2018-Apr-20 17:56N 51°13' E 004°24'0 0.0
2018-Apr-20 17:20N 51°13' E 004°24'0 0.0
2018-Apr-20 16:59N 51°13' E 004°24'0 0.0
2018-Apr-20 16:26N 51°13' E 004°24'0 0.0
2018-Apr-20 15:56N 51°13' E 004°24'0 0.0
2018-Apr-20 15:29N 51°13' E 004°24'0 0.0
2018-Apr-20 14:59N 51°13' E 004°24'0 0.0
2018-Apr-20 14:30N 51°13' E 004°24'0 0.0
2018-Apr-20 14:00N 51°13' E 004°24'0 0.0
2018-Apr-20 13:30N 51°13' E 004°24'0 0.0
2018-Apr-20 13:00N 51°13' E 004°24'0 0.0
2018-Apr-20 12:30N 51°13' E 004°24'0 0.3
2018-Apr-20 12:01N 51°13' E 004°24'2 3.2
2018-Apr-20 11:31N 51°14' E 004°22'3 5.0
2018-Apr-20 11:01N 51°15' E 004°18'2 4.7
2018-Apr-20 10:30N 51°18' E 004°18'3 6.2
2018-Apr-20 10:00N 51°21' E 004°16'4 7.3
2018-Apr-20 09:28N 51°24' E 004°12'3 7.3
2018-Apr-20 09:00N 51°22' E 004°07'3 6.3
2018-Apr-20 08:30N 51°23' E 004°03'3 6.7
2018-Apr-20 07:59N 51°26' E 004°00'3 6.9
2018-Apr-20 07:30N 51°23' E 003°57'4 7.0
2018-Apr-20 07:00N 51°21' E 003°53'4 7.4
2018-Apr-20 06:30N 51°21' E 003°47'3 6.9
2018-Apr-20 06:01N 51°23' E 003°43'3 6.9
2018-Apr-20 05:31N 51°26' E 003°40'4 7.6
2018-Apr-20 05:00N 51°25' E 003°34'4 8.6
2018-Apr-20 04:30N 51°25' E 003°27'5 9.8
2018-Apr-20 04:01N 51°24' E 003°19'510.9
2018-Apr-20 03:31N 51°23' E 003°11'611.3
2018-Apr-20 03:00N 51°22' E 003°02'611.0
2018-Apr-20 02:30N 51°21' E 002°53'510.8
2018-Apr-20 02:00N 51°22' E 002°44'4 7.1
2018-Apr-20 01:30N 51°21' E 002°38'2 4.5
2018-Apr-20 01:01N 51°21' E 002°35'1 2.2
2018-Apr-20 00:30N 51°21' E 002°33'1 1.5
2018-Apr-20 00:00N 51°21' E 002°34'0 0.7
2018-Apr-19 23:29N 51°21' E 002°35'0 0.2
2018-Apr-19 23:00N 51°21' E 002°35'0 0.6
2018-Apr-19 22:29N 51°21' E 002°34'0 0.7
2018-Apr-19 21:51N 51°21' E 002°34'0 1.1
2018-Apr-19 21:30N 51°21' E 002°33'1 1.5
2018-Apr-19 21:01N 51°21' E 002°32'1 1.0
2018-Apr-19 20:30N 51°22' E 002°31'1 1.4
2018-Apr-19 19:55N 51°22' E 002°30'1 1.9
2018-Apr-19 19:30N 51°21' E 002°29'1 2.1
2018-Apr-19 18:59N 51°21' E 002°27'1 2.5
2018-Apr-19 18:30N 51°21' E 002°25'1 3.0
2018-Apr-19 18:00N 51°20' E 002°23'2 3.8
2018-Apr-19 17:30N 51°19' E 002°21'2 4.2
2018-Apr-19 17:00N 51°17' E 002°18'2 4.6
2018-Apr-19 16:29N 51°16' E 002°15'2 4.6
2018-Apr-19 16:00N 51°15' E 002°12'2 4.9
2018-Apr-19 15:31N 51°14' E 002°09'2 4.6
2018-Apr-19 15:01N 51°12' E 002°06'2 5.0
2018-Apr-19 14:31N 51°11' E 002°02'3 5.2
2018-Apr-19 14:01N 51°10' E 001°58'3 5.0
2018-Apr-19 13:31N 51°09' E 001°55'3 5.4
2018-Apr-19 13:01N 51°08' E 001°51'3 5.4
2018-Apr-19 12:31N 51°06' E 001°47'2 4.9
2018-Apr-19 12:01N 51°05' E 001°45'2 4.0
2018-Apr-19 11:31N 51°03' E 001°43'2 3.0
2018-Apr-19 11:01N 51°02' E 001°41'1 2.0
2018-Apr-19 10:31N 51°01' E 001°40'1 1.1
2018-Apr-19 10:00N 51°01' E 001°39'0 0.8
2018-Apr-19 09:30N 51°00' E 001°39'0 0.7
2018-Apr-19 09:00N 51°00' E 001°38'0 0.9
2018-Apr-19 08:30N 50°60' E 001°38'1 1.1
2018-Apr-19 08:00N 50°59' E 001°37'1 1.4
2018-Apr-19 07:30N 50°59' E 001°37'1 1.9
2018-Apr-19 07:01N 50°58' E 001°36'1 2.6
2018-Apr-19 06:30N 50°57' E 001°34'2 3.1
2018-Apr-19 06:00N 50°56' E 001°33'2 3.7
2018-Apr-19 05:31N 50°55' E 001°31'2 3.9
2018-Apr-19 05:00N 50°53' E 001°29'4 4.7
2018-Apr-19 04:12N 50°49' E 001°28'1 4.9
2018-Apr-19 03:57N 50°48' E 001°27'2 4.9
2018-Apr-19 03:28N 50°46' E 001°26'2 4.9
2018-Apr-19 02:59N 50°44' E 001°24'2 5.0
2018-Apr-19 02:30N 50°42' E 001°22'2 4.5
2018-Apr-19 01:58N 50°40' E 001°20'2 4.0
2018-Apr-19 01:30N 50°38' E 001°18'5 4.1
2018-Apr-19 00:22N 50°35' E 001°13'20 2.7
2018-Apr-18 16:48N 50°24' E 000°46'1 1.7
2018-Apr-18 16:27N 50°24' E 000°47'1 1.6
2018-Apr-18 15:55N 50°24' E 000°49'1 1.4
2018-Apr-18 15:30N 50°24' E 000°50'1 1.0
2018-Apr-18 14:06N 50°24' E 000°52'26 1.8
2018-Apr-17 23:47N 50°19' E 000°12'2 6.5
2018-Apr-17 23:31N 50°19' E 000°09'12 4.7
2018-Apr-17 21:02N 50°16' W 000°09'0 4.5
2018-Apr-17 20:57N 50°16' W 000°09'5 4.0
2018-Apr-17 19:46N 50°16' W 000°17'14 1.9
2018-Apr-17 12:22N 50°29' W 000°26'1 3.4
2018-Apr-17 12:00N 50°30' W 000°26'3 5.5
2018-Apr-17 11:30N 50°30' W 000°31'4 7.9
2018-Apr-17 11:00N 50°28' W 000°37'4 8.1
2018-Apr-17 10:29N 50°27' W 000°43'5 8.8
2018-Apr-17 09:58N 50°25' W 000°49'610.1
2018-Apr-17 09:23N 50°23' W 000°58'410.0
2018-Apr-17 09:01N 50°22' W 001°04'510.8
2018-Apr-17 08:30N 50°20' W 001°12'510.2
2018-Apr-17 07:59N 50°19' W 001°20'910.0
2018-Apr-17 07:04N 50°17' W 001°34'310.0
2018-Apr-17 06:47N 50°16' W 001°38'2 7.8
2018-Apr-17 06:28N 50°16' W 001°42'3 6.9
2018-Apr-17 05:59N 50°15' W 001°47'3 6.7
2018-Apr-17 05:30N 50°15' W 001°52'4 6.8
2018-Apr-17 04:59N 50°15' W 001°57'3 5.8
2018-Apr-17 04:30N 50°15' W 002°02'3 6.3
2018-Apr-17 04:01N 50°14' W 002°07'3 5.4
2018-Apr-17 03:30N 50°14' W 002°11'2 4.6
2018-Apr-17 03:00N 50°14' W 002°15'19 5.4
2018-Apr-16 23:23N 50°13' W 002°45'3 8.0
2018-Apr-16 22:59N 50°13' W 002°50'4 8.1
2018-Apr-16 22:30N 50°10' W 002°53'4 8.2
2018-Apr-16 22:01N 50°06' W 002°56'4 7.7
2018-Apr-16 21:30N 50°03' W 002°59'4 7.4
2018-Apr-16 21:01N 49°60' W 003°02'4 7.6
2018-Apr-16 20:30N 49°56' W 003°05'4 7.7
2018-Apr-16 20:01N 49°54' W 003°09'4 6.9
2018-Apr-16 19:26N 49°51' W 003°13'  
Track history (hours):
 
Tides and Currents Weather Stations Pressure Air Temp Water Temp Dewpoint Dewpoint Depression Visibility Wind Speed Wind Dir Waves Ship Positions

Dar Mlodziezy

Training ship for Gdynia Maritime University, Poland.

Ship's website: http://www.am.gdynia.pl/armator/darmlodziezy.php

Last reported at 2018-Apr-26 19:00 UTC. Time now 2018-Apr-26 19:13 UTC.
Position N 54°47' E 018°51'.

Length 95 m; beam 14 m.

Type: Sailing vessel. MMSI: 261148000.

Date/timePositionNaut miles runAvg speedWind from/ knotsBaromVisibWave heightAir tempDewpointWater temp
2018-Apr-26 19:00N 54°47' E 018°51'0 0.5
2018-Apr-26 18:30N 54°47' E 018°51'0 0.5
2018-Apr-26 17:59N 54°47' E 018°50'0 0.6
2018-Apr-26 17:30N 54°47' E 018°50'0 0.6
2018-Apr-26 17:00N 54°47' E 018°50'0 0.7
2018-Apr-26 16:30N 54°47' E 018°49'0 0.7
2018-Apr-26 16:00N 54°47' E 018°48'0 0.8
2018-Apr-26 15:30N 54°47' E 018°48'0 0.8
2018-Apr-26 15:00N 54°47' E 018°47'0 0.8
2018-Apr-26 14:30N 54°47' E 018°47'0 0.9
2018-Apr-26 14:00N 54°47' E 018°46'1 1.0
2018-Apr-26 13:30N 54°48' E 018°45'1 1.1
2018-Apr-26 13:00N 54°48' E 018°44'1 1.2
2018-Apr-26 12:30N 54°48' E 018°43'1 1.2
2018-Apr-26 12:00N 54°49' E 018°42'1 1.2
2018-Apr-26 11:30N 54°49' E 018°42'1 1.4
2018-Apr-26 11:00N 54°49' E 018°41'1 1.3
2018-Apr-26 10:30N 54°49' E 018°39'2 3.8
2018-Apr-26 10:00N 54°51' E 018°37'2 4.5
2018-Apr-26 09:30N 54°52' E 018°34'2 4.8
2018-Apr-26 09:00N 54°53' E 018°30'3 6.5
2018-Apr-26 08:30N 54°54' E 018°25'3 5.8
2018-Apr-26 08:00N 54°55' E 018°19'4 7.1
2018-Apr-26 07:30N 54°55' E 018°13'4 7.8
2018-Apr-26 07:00N 54°56' E 018°07'4 7.9
2018-Apr-26 06:30N 54°56' E 017°60'98 7.4
2018-Apr-25 17:17N 54°53' E 015°09'2 7.6
2018-Apr-25 17:00N 54°54' E 015°06'3 6.8
2018-Apr-25 16:30N 54°55' E 015°00'3 5.6
2018-Apr-25 16:00N 54°56' E 014°56'2 3.6
2018-Apr-25 15:30N 54°56' E 014°53'3 5.6
2018-Apr-25 15:00N 54°55' E 014°48'4 7.2
2018-Apr-25 14:30N 54°55' E 014°41'4 8.4
2018-Apr-25 14:00N 54°56' E 014°34'5 9.3
2018-Apr-25 13:30N 54°56' E 014°26'5 9.2
2018-Apr-25 13:00N 54°56' E 014°18'5 7.3
2018-Apr-25 12:20N 54°56' E 014°10'8 5.0
2018-Apr-25 10:50N 54°59' E 013°58'47 7.6
2018-Apr-25 04:36N 55°17' E 012°41'2 8.3
2018-Apr-25 04:21N 55°18' E 012°38'3 7.8
2018-Apr-25 03:55N 55°21' E 012°38'5 7.5
2018-Apr-25 03:12N 55°26' E 012°40'2 7.7
2018-Apr-25 03:00N 55°28' E 012°41'5 8.2
2018-Apr-25 02:24N 55°33' E 012°42'4 9.1
2018-Apr-25 02:00N 55°36' E 012°42'5 9.4
2018-Apr-25 01:27N 55°42' E 012°41'4 8.3
2018-Apr-25 01:00N 55°45' E 012°41'4 8.0
2018-Apr-25 00:27N 55°50' E 012°42'4 8.7
2018-Apr-25 00:00N 55°53' E 012°39'4 8.1
2018-Apr-24 23:30N 55°57' E 012°40'5 9.1
2018-Apr-24 23:00N 56°02' E 012°39'510.0
2018-Apr-24 22:30N 56°06' E 012°34'75 8.3
2018-Apr-24 13:28N 57°13' E 011°34'4 8.0
2018-Apr-24 13:00N 57°17' E 011°31'4 8.0
2018-Apr-24 12:30N 57°21' E 011°29'4 7.8
2018-Apr-24 12:00N 57°24' E 011°26'4 7.9
2018-Apr-24 11:30N 57°28' E 011°23'4 8.6
2018-Apr-24 11:00N 57°31' E 011°18'4 8.7
2018-Apr-24 10:30N 57°34' E 011°12'4 8.5
2018-Apr-24 10:00N 57°37' E 011°06'4 7.6
2018-Apr-24 09:30N 57°39' E 011°01'3 6.8
2018-Apr-24 09:00N 57°42' E 010°56'3 6.7
2018-Apr-24 08:30N 57°44' E 010°51'4 7.5
2018-Apr-24 08:00N 57°46' E 010°46'9 7.7
2018-Apr-24 06:50N 57°49' E 010°30'1 3.2
2018-Apr-24 06:30N 57°48' E 010°28'2 3.6
2018-Apr-24 06:00N 57°48' E 010°25'7 6.0
2018-Apr-24 04:45N 57°45' E 010°12'2 7.3
2018-Apr-24 04:29N 57°45' E 010°08'4 7.2
2018-Apr-24 04:00N 57°44' E 010°02'3 6.4
2018-Apr-24 03:30N 57°42' E 009°57'3 6.9
2018-Apr-24 02:59N 57°40' E 009°51'144 6.9
2018-Apr-23 06:13N 55°60' E 006°43'1 6.4
2018-Apr-23 05:59N 55°58' E 006°42'3 6.6
2018-Apr-23 05:29N 55°56' E 006°39'3 6.6
2018-Apr-23 05:00N 55°53' E 006°35'3 6.3
2018-Apr-23 04:30N 55°50' E 006°32'3 6.3
2018-Apr-23 04:00N 55°48' E 006°29'4 7.4
2018-Apr-23 03:29N 55°45' E 006°26'3 6.7
2018-Apr-23 02:59N 55°42' E 006°23'3 5.9
2018-Apr-23 02:26N 55°39' E 006°20'2 4.3
2018-Apr-23 02:00N 55°37' E 006°18'182 6.7
2018-Apr-21 22:46N 53°05' E 003°28'3 7.7
2018-Apr-21 22:24N 53°03' E 003°26'9 8.1
2018-Apr-21 21:16N 52°54' E 003°21'2 8.7
2018-Apr-21 21:00N 52°52' E 003°21'5 9.0
2018-Apr-21 20:29N 52°47' E 003°22'5 9.2
2018-Apr-21 20:00N 52°42' E 003°22'5 9.1
2018-Apr-21 19:30N 52°38' E 003°23'5 9.1
2018-Apr-21 18:57N 52°33' E 003°24'4 9.2
2018-Apr-21 18:29N 52°29' E 003°24'13 9.7
2018-Apr-21 17:11N 52°16' E 003°27'5 9.5
2018-Apr-21 16:41N 52°11' E 003°25'2 9.3
2018-Apr-21 16:30N 52°10' E 003°25'8 8.9
2018-Apr-21 15:38N 52°02' E 003°23'1 9.1
2018-Apr-21 15:30N 52°01' E 003°23'5 8.1
2018-Apr-21 14:55N 51°56' E 003°22'3 7.7
2018-Apr-21 14:30N 51°53' E 003°21'4 7.4
2018-Apr-21 14:00N 51°50' E 003°19'4 7.1
2018-Apr-21 13:29N 51°46' E 003°17'3 6.6
2018-Apr-21 12:58N 51°43' E 003°17'4 8.0
2018-Apr-21 12:30N 51°39' E 003°20'6 8.4
2018-Apr-21 11:47N 51°34' E 003°25'3 7.7
2018-Apr-21 11:27N 51°32' E 003°26'4 8.4
2018-Apr-21 11:00N 51°29' E 003°30'5 9.1
2018-Apr-21 10:30N 51°26' E 003°35'5 9.4
2018-Apr-21 10:00N 51°25' E 003°43'611.3
2018-Apr-21 09:30N 51°21' E 003°49'611.7
2018-Apr-21 09:00N 51°24' E 003°57'3 6.3
2018-Apr-21 08:30N 51°24' E 004°02'5 9.1
2018-Apr-21 07:58N 51°23' E 004°10'4 7.9
2018-Apr-21 07:29N 51°21' E 004°15'4 9.0
2018-Apr-21 07:00N 51°18' E 004°19'3 6.3
2018-Apr-21 06:30N 51°15' E 004°20'2 4.4
2018-Apr-21 05:56N 51°13' E 004°24'0 0.0
2018-Apr-21 05:29N 51°13' E 004°24'0 0.0
2018-Apr-21 04:56N 51°13' E 004°24'0 0.0
2018-Apr-21 04:29N 51°13' E 004°24'0 0.0
2018-Apr-21 03:59N 51°13' E 004°24'0 0.0
2018-Apr-21 03:29N 51°13' E 004°24'0 0.0
2018-Apr-21 02:59N 51°13' E 004°24'0 0.0
2018-Apr-21 02:29N 51°13' E 004°24'0 0.0
2018-Apr-21 01:59N 51°13' E 004°24'0 0.0
2018-Apr-21 01:29N 51°13' E 004°24'0 0.0
2018-Apr-21 00:59N 51°13' E 004°24'0 0.0
2018-Apr-21 00:29N 51°13' E 004°24'0 0.0
2018-Apr-21 00:00N 51°13' E 004°24'0 0.0
2018-Apr-20 23:29N 51°13' E 004°24'0 0.0
2018-Apr-20 22:59N 51°13' E 004°24'0 0.0
2018-Apr-20 22:29N 51°13' E 004°24'0 0.0
2018-Apr-20 21:56N 51°13' E 004°24'0 0.0
2018-Apr-20 21:29N 51°13' E 004°24'0 0.0
2018-Apr-20 20:59N 51°13' E 004°24'0 0.0
2018-Apr-20 20:26N 51°13' E 004°24'0 0.0
2018-Apr-20 19:56N 51°13' E 004°24'0 0.0
2018-Apr-20 19:29N 51°13' E 004°24'0 0.0
2018-Apr-20 18:59N 51°13' E 004°24'0 0.0
2018-Apr-20 18:29N 51°13' E 004°24'0 0.0
2018-Apr-20 17:56N 51°13' E 004°24'0 0.0
2018-Apr-20 17:20N 51°13' E 004°24'0 0.0
2018-Apr-20 16:59N 51°13' E 004°24'0 0.0
2018-Apr-20 16:26N 51°13' E 004°24'0 0.0
2018-Apr-20 15:56N 51°13' E 004°24'0 0.0
2018-Apr-20 15:29N 51°13' E 004°24'0 0.0
2018-Apr-20 14:59N 51°13' E 004°24'0 0.0
2018-Apr-20 14:30N 51°13' E 004°24'0 0.0
2018-Apr-20 14:00N 51°13' E 004°24'0 0.0
2018-Apr-20 13:30N 51°13' E 004°24'0 0.0
2018-Apr-20 13:00N 51°13' E 004°24'0 0.0
2018-Apr-20 12:30N 51°13' E 004°24'0 0.3
2018-Apr-20 12:01N 51°13' E 004°24'2 3.2
2018-Apr-20 11:31N 51°14' E 004°22'3 5.0
2018-Apr-20 11:01N 51°15' E 004°18'2 4.7
2018-Apr-20 10:30N 51°18' E 004°18'3 6.2
2018-Apr-20 10:00N 51°21' E 004°16'4 7.3
2018-Apr-20 09:28N 51°24' E 004°12'3 7.3
2018-Apr-20 09:00N 51°22' E 004°07'3 6.3
2018-Apr-20 08:30N 51°23' E 004°03'3 6.7
2018-Apr-20 07:59N 51°26' E 004°00'3 6.9
2018-Apr-20 07:30N 51°23' E 003°57'4 7.0
2018-Apr-20 07:00N 51°21' E 003°53'4 7.4
2018-Apr-20 06:30N 51°21' E 003°47'3 6.9
2018-Apr-20 06:01N 51°23' E 003°43'3 6.9
2018-Apr-20 05:31N 51°26' E 003°40'4 7.6
2018-Apr-20 05:00N 51°25' E 003°34'4 8.6
2018-Apr-20 04:30N 51°25' E 003°27'5 9.8
2018-Apr-20 04:01N 51°24' E 003°19'510.9
2018-Apr-20 03:31N 51°23' E 003°11'611.3
2018-Apr-20 03:00N 51°22' E 003°02'611.0
2018-Apr-20 02:30N 51°21' E 002°53'510.8
2018-Apr-20 02:00N 51°22' E 002°44'4 7.1
2018-Apr-20 01:30N 51°21' E 002°38'2 4.5
2018-Apr-20 01:01N 51°21' E 002°35'1 2.2
2018-Apr-20 00:30N 51°21' E 002°33'1 1.5
2018-Apr-20 00:00N 51°21' E 002°34'0 0.7
2018-Apr-19 23:29N 51°21' E 002°35'0 0.2
2018-Apr-19 23:00N 51°21' E 002°35'0 0.6
2018-Apr-19 22:29N 51°21' E 002°34'0 0.7
2018-Apr-19 21:51N 51°21' E 002°34'0 1.1
2018-Apr-19 21:30N 51°21' E 002°33'1 1.5
2018-Apr-19 21:01N 51°21' E 002°32'1 1.0
2018-Apr-19 20:30N 51°22' E 002°31'1 1.4
2018-Apr-19 19:55N 51°22' E 002°30'1 1.9
2018-Apr-19 19:30N 51°21' E 002°29'1 2.1
2018-Apr-19 18:59N 51°21' E 002°27'1 2.5
2018-Apr-19 18:30N 51°21' E 002°25'1 3.0
2018-Apr-19 18:00N 51°20' E 002°23'2 3.8
2018-Apr-19 17:30N 51°19' E 002°21'2 4.2
2018-Apr-19 17:00N 51°17' E 002°18'2 4.6
2018-Apr-19 16:29N 51°16' E 002°15'2 4.6
2018-Apr-19 16:00N 51°15' E 002°12'2 4.9
2018-Apr-19 15:31N 51°14' E 002°09'2 4.6
2018-Apr-19 15:01N 51°12' E 002°06'2 5.0
2018-Apr-19 14:31N 51°11' E 002°02'3 5.2
2018-Apr-19 14:01N 51°10' E 001°58'3 5.0
2018-Apr-19 13:31N 51°09' E 001°55'3 5.4
2018-Apr-19 13:01N 51°08' E 001°51'3 5.4
2018-Apr-19 12:31N 51°06' E 001°47'2 4.9
2018-Apr-19 12:01N 51°05' E 001°45'2 4.0
2018-Apr-19 11:31N 51°03' E 001°43'2 3.0
2018-Apr-19 11:01N 51°02' E 001°41'1 2.0
2018-Apr-19 10:31N 51°01' E 001°40'1 1.1
2018-Apr-19 10:00N 51°01' E 001°39'0 0.8
2018-Apr-19 09:30N 51°00' E 001°39'0 0.7
2018-Apr-19 09:00N 51°00' E 001°38'0 0.9
2018-Apr-19 08:30N 50°60' E 001°38'1 1.1
2018-Apr-19 08:00N 50°59' E 001°37'1 1.4
2018-Apr-19 07:30N 50°59' E 001°37'1 1.9
2018-Apr-19 07:01N 50°58' E 001°36'1 2.6
2018-Apr-19 06:30N 50°57' E 001°34'2 3.1
2018-Apr-19 06:00N 50°56' E 001°33'2 3.7
2018-Apr-19 05:31N 50°55' E 001°31'2 3.9
2018-Apr-19 05:00N 50°53' E 001°29'4 4.7
2018-Apr-19 04:12N 50°49' E 001°28'1 4.9
2018-Apr-19 03:57N 50°48' E 001°27'2 4.9
2018-Apr-19 03:28N 50°46' E 001°26'2 4.9
2018-Apr-19 02:59N 50°44' E 001°24'2 5.0
2018-Apr-19 02:30N 50°42' E 001°22'2 4.5
2018-Apr-19 01:58N 50°40' E 001°20'2 4.0
2018-Apr-19 01:30N 50°38' E 001°18'5 4.1
2018-Apr-19 00:22N 50°35' E 001°13'20 2.7
2018-Apr-18 16:48N 50°24' E 000°46'1 1.7
2018-Apr-18 16:27N 50°24' E 000°47'1 1.6
2018-Apr-18 15:55N 50°24' E 000°49'1 1.4
2018-Apr-18 15:30N 50°24' E 000°50'1 1.0
2018-Apr-18 14:06N 50°24' E 000°52'26 1.8
2018-Apr-17 23:47N 50°19' E 000°12'2 6.5
2018-Apr-17 23:31N 50°19' E 000°09'12 4.7
2018-Apr-17 21:02N 50°16' W 000°09'0 4.5
2018-Apr-17 20:57N 50°16' W 000°09'5 4.0
2018-Apr-17 19:46N 50°16' W 000°17'14 1.9
2018-Apr-17 12:22N 50°29' W 000°26'1 3.4
2018-Apr-17 12:00N 50°30' W 000°26'3 5.5
2018-Apr-17 11:30N 50°30' W 000°31'4 7.9
2018-Apr-17 11:00N 50°28' W 000°37'4 8.1
2018-Apr-17 10:29N 50°27' W 000°43'5 8.8
2018-Apr-17 09:58N 50°25' W 000°49'610.1
2018-Apr-17 09:23N 50°23' W 000°58'410.0
2018-Apr-17 09:01N 50°22' W 001°04'510.8
2018-Apr-17 08:30N 50°20' W 001°12'510.2
2018-Apr-17 07:59N 50°19' W 001°20'910.0
2018-Apr-17 07:04N 50°17' W 001°34'310.0
2018-Apr-17 06:47N 50°16' W 001°38'2 7.8
2018-Apr-17 06:28N 50°16' W 001°42'3 6.9
2018-Apr-17 05:59N 50°15' W 001°47'3 6.7
2018-Apr-17 05:30N 50°15' W 001°52'4 6.8
2018-Apr-17 04:59N 50°15' W 001°57'3 5.8
2018-Apr-17 04:30N 50°15' W 002°02'3 6.3
2018-Apr-17 04:01N 50°14' W 002°07'3 5.4
2018-Apr-17 03:30N 50°14' W 002°11'2 4.6
2018-Apr-17 03:00N 50°14' W 002°15'19 5.4
2018-Apr-16 23:23N 50°13' W 002°45'3 8.0
2018-Apr-16 22:59N 50°13' W 002°50'4 8.1
2018-Apr-16 22:30N 50°10' W 002°53'4 8.2
2018-Apr-16 22:01N 50°06' W 002°56'4 7.7
2018-Apr-16 21:30N 50°03' W 002°59'4 7.4
2018-Apr-16 21:01N 49°60' W 003°02'4 7.6
2018-Apr-16 20:30N 49°56' W 003°05'4 7.7
2018-Apr-16 20:01N 49°54' W 003°09'4 6.9
2018-Apr-16 19:26N 49°51' W 003°13'  

Dump ship's entire track history